Time;durP1;ratioP1;P1;durP2;ratioP2;P2;SDS_P1;SDS_P2;PMS_P1;PMS_P2;Temp;Humidity;BMP_temperature;BMP_pressure;BME280_temperature;BME280_humidity;BME280_pressure;Samples;Min_cycle;Max_cycle;Signal;HPM_P1;HPM_P2
2022/10/19 00:02:23;;;;;;;;;;;14.40;88.20;;;;;;5096431;28;19968;-88
2022/10/19 00:04:48;;;;;;;;;;;14.40;88.10;;;;;;5096441;28;19943;-88
2022/10/19 00:07:14;;;;;;;;;;;14.30;87.70;;;;;;5096392;28;20417;-88
2022/10/19 00:09:41;;;;;;;;;;;14.30;87.40;;;;;;5096631;28;19940;-88
2022/10/19 00:12:07;;;;;;;;;;;14.30;87.50;;;;;;5096341;28;19938;-88
2022/10/19 00:14:32;;;;;;;;;;;14.30;87.60;;;;;;5095777;28;19955;-88
2022/10/19 00:16:58;;;;;;;;;;;14.30;88.00;;;;;;5096067;28;19945;-87
2022/10/19 00:19:24;;;;;;;;;;;14.30;87.80;;;;;;5096430;28;19950;-87
2022/10/19 00:21:50;;;;;;;;;;;14.40;88.20;;;;;;5096122;28;20006;-88
2022/10/19 00:24:15;;;;;;;;;;;14.30;88.20;;;;;;5096095;28;19983;-88
2022/10/19 00:26:41;;;;;;;;;;;14.20;87.30;;;;;;5096055;28;19948;-88
2022/10/19 00:29:07;;;;;;;;;;;14.20;85.90;;;;;;5095873;28;19974;-88
2022/10/19 00:31:33;;;;;;;;;;;14.10;85.80;;;;;;5095945;28;20469;-88
2022/10/19 00:33:59;;;;;;;;;;;14.20;86.60;;;;;;5095918;28;19940;-88
2022/10/19 00:36:29;;;;;;;;;;;14.10;86.00;;;;;;5095859;28;19944;-88
2022/10/19 00:38:55;;;;;;;;;;;14.10;86.10;;;;;;5095828;28;19941;-88
2022/10/19 00:41:22;;;;;;;;;;;14.10;85.90;;;;;;5095376;28;19965;-88
2022/10/19 00:44:26;;;;;;;;;;;14.10;85.80;;;;;;5095723;28;19940;-88
2022/10/19 00:46:52;;;;;;;;;;;14.00;85.80;;;;;;5033148;28;19955;-88
2022/10/19 00:49:22;;;;;;;;;;;14.00;85.80;;;;;;5033120;28;19947;-87
2022/10/19 00:51:53;;;;;;;;;;;14.00;86.70;;;;;;5063709;28;20046;-88
2022/10/19 00:54:19;;;;;;;;;;;14.00;87.70;;;;;;5095559;28;19939;-88
2022/10/19 00:56:46;;;;;;;;;;;13.90;87.60;;;;;;5095519;28;19946;-88
2022/10/19 00:59:13;;;;;;;;;;;13.90;87.80;;;;;;5095428;28;19964;-88
2022/10/19 01:01:39;;;;;;;;;;;13.90;87.60;;;;;;5077277;28;19981;-88
2022/10/19 01:04:05;;;;;;;;;;;13.90;87.30;;;;;;5095338;28;20277;-88
2022/10/19 01:06:31;;;;;;;;;;;13.80;87.80;;;;;;5095305;28;19944;-87
2022/10/19 01:08:57;;;;;;;;;;;13.80;87.70;;;;;;5094284;28;20387;-88
2022/10/19 01:11:28;;;;;;;;;;;13.60;87.30;;;;;;5095010;28;19950;-88
2022/10/19 01:14:20;;;;;;;;;;;13.60;87.60;;;;;;5094738;28;20038;-87
2022/10/19 01:16:51;;;;;;;;;;;13.60;87.50;;;;;;5095093;28;19941;-87
2022/10/19 01:19:36;;;;;;;;;;;13.60;87.60;;;;;;5095359;28;19946;-88
2022/10/19 01:22:01;;;;;;;;;;;13.60;88.10;;;;;;5094946;28;19962;-88
2022/10/19 01:24:49;;;;;;;;;;;13.50;88.00;;;;;;5094973;28;19939;-87
2022/10/19 01:27:17;;;;;;;;;;;13.40;89.60;;;;;;5094846;28;19943;-87
2022/10/19 01:29:55;;;;;;;;;;;13.30;90.70;;;;;;5094629;28;20017;-87
2022/10/19 01:32:23;;;;;;;;;;;13.40;90.50;;;;;;5094777;28;19935;-88
2022/10/19 01:34:48;;;;;;;;;;;13.40;90.50;;;;;;5094793;28;20201;-88
2022/10/19 01:37:32;;;;;;;;;;;13.30;90.30;;;;;;5094516;28;19944;-88
2022/10/19 01:40:03;;;;;;;;;;;13.20;90.20;;;;;;5094391;28;19991;-87
2022/10/19 01:42:29;;;;;;;;;;;13.20;90.10;;;;;;5094506;28;20408;-88
2022/10/19 01:44:58;;;;;;;;;;;13.10;89.30;;;;;;5094503;28;19938;-88
2022/10/19 01:47:26;;;;;;;;;;;13.10;89.00;;;;;;5094485;28;19966;-88
2022/10/19 01:50:00;;;;;;;;;;;13.20;89.00;;;;;;5094481;28;19942;-87
2022/10/19 01:52:26;;;;;;;;;;;13.20;88.80;;;;;;5094201;28;20002;-88
2022/10/19 01:54:58;;;;;;;;;;;13.20;88.80;;;;;;5094107;28;20033;-87
2022/10/19 01:57:35;;;;;;;;;;;13.20;89.30;;;;;;5094293;28;19940;-87
2022/10/19 02:00:06;;;;;;;;;;;13.10;89.50;;;;;;5094286;28;19946;-88
2022/10/19 02:02:34;;;;;;;;;;;13.20;90.00;;;;;;5094109;28;19980;-88
2022/10/19 02:05:00;;;;;;;;;;;13.30;89.50;;;;;;5093835;28;19946;-87
2022/10/19 02:07:26;;;;;;;;;;;13.30;88.30;;;;;;5094137;28;20035;-88
2022/10/19 02:09:52;;;;;;;;;;;13.20;88.50;;;;;;5094054;28;20030;-88
2022/10/19 02:12:19;;;;;;;;;;;13.20;88.80;;;;;;5094055;28;19982;-88
2022/10/19 02:14:49;;;;;;;;;;;13.20;89.00;;;;;;5094010;28;20001;-88
2022/10/19 02:17:26;;;;;;;;;;;13.10;88.70;;;;;;5093938;28;19939;-88
2022/10/19 02:19:52;;;;;;;;;;;13.20;88.90;;;;;;5075628;28;19950;-88
2022/10/19 02:22:18;;;;;;;;;;;13.10;89.10;;;;;;5093766;28;20017;-88
2022/10/19 02:24:44;;;;;;;;;;;13.20;89.40;;;;;;5093815;28;19945;-87
2022/10/19 02:27:10;;;;;;;;;;;13.30;89.00;;;;;;5093759;28;19965;-88
2022/10/19 02:29:36;;;;;;;;;;;13.30;88.90;;;;;;5093588;28;20028;-88
2022/10/19 02:32:01;;;;;;;;;;;13.30;88.50;;;;;;5093686;28;19941;-87
2022/10/19 02:34:27;;;;;;;;;;;13.30;88.60;;;;;;5093368;28;19941;-88
2022/10/19 02:36:53;;;;;;;;;;;13.30;88.20;;;;;;5093608;28;19978;-88
2022/10/19 02:39:19;;;;;;;;;;;13.20;87.10;;;;;;5093608;28;20007;-88
2022/10/19 02:41:48;;;;;;;;;;;13.20;86.90;;;;;;5093484;28;19967;-87
2022/10/19 02:44:18;;;;;;;;;;;13.00;87.30;;;;;;5093544;28;19940;-88
2022/10/19 02:46:45;;;;;;;;;;;12.90;87.50;;;;;;5093437;28;19935;-88
2022/10/19 02:49:11;;;;;;;;;;;12.90;87.30;;;;;;5093490;28;19936;-88
2022/10/19 02:51:37;;;;;;;;;;;12.90;87.60;;;;;;5093165;28;19953;-88
2022/10/19 02:54:04;;;;;;;;;;;13.00;87.80;;;;;;5093397;28;19942;-88
2022/10/19 02:56:30;;;;;;;;;;;12.90;87.80;;;;;;5093552;28;20026;-88
2022/10/19 02:58:55;;;;;;;;;;;12.90;87.70;;;;;;5093272;28;19974;-88
2022/10/19 03:01:21;;;;;;;;;;;12.90;87.50;;;;;;5093011;28;19969;-88
2022/10/19 03:03:46;;;;;;;;;;;12.90;87.50;;;;;;5093238;28;19961;-88
2022/10/19 03:06:12;;;;;;;;;;;12.90;87.80;;;;;;5093210;28;19953;-88
2022/10/19 03:08:38;;;;;;;;;;;12.90;88.00;;;;;;5093442;28;19988;-88
2022/10/19 03:11:03;;;;;;;;;;;13.00;87.90;;;;;;5093157;28;20301;-87
2022/10/19 03:13:29;;;;;;;;;;;12.90;87.40;;;;;;5093140;28;19938;-88
2022/10/19 03:15:54;;;;;;;;;;;12.90;87.00;;;;;;5093158;28;19947;-88
2022/10/19 03:18:20;;;;;;;;;;;12.90;87.10;;;;;;5093100;28;19935;-87
2022/10/19 03:20:46;;;;;;;;;;;12.90;86.80;;;;;;5093396;28;19963;-88
2022/10/19 03:23:11;;;;;;;;;;;12.80;87.10;;;;;;5093042;28;20448;-88
2022/10/19 03:25:37;;;;;;;;;;;12.80;87.10;;;;;;5093087;28;20394;-88
2022/10/19 03:28:02;;;;;;;;;;;12.90;87.30;;;;;;5092904;28;20065;-88
2022/10/19 03:30:28;;;;;;;;;;;12.90;87.40;;;;;;5092744;28;19944;-87
2022/10/19 03:32:53;;;;;;;;;;;12.80;87.30;;;;;;5095422;28;19949;-88
2022/10/19 03:35:19;;;;;;;;;;;12.80;87.30;;;;;;5097064;28;20373;-88
2022/10/19 03:37:44;;;;;;;;;;;12.80;87.80;;;;;;5097018;28;19939;-87
2022/10/19 03:40:10;;;;;;;;;;;12.70;88.90;;;;;;5096975;28;19939;-88
2022/10/19 03:42:35;;;;;;;;;;;12.60;88.50;;;;;;5096815;28;19967;-87
2022/10/19 03:45:02;;;;;;;;;;;12.60;88.10;;;;;;5096832;28;20026;-88
2022/10/19 03:47:28;;;;;;;;;;;12.60;88.10;;;;;;5097039;28;20031;-88
2022/10/19 03:49:53;;;;;;;;;;;12.60;88.10;;;;;;5096783;28;20438;-87
2022/10/19 03:52:19;;;;;;;;;;;12.60;88.40;;;;;;5096529;28;19953;-88
2022/10/19 03:54:45;;;;;;;;;;;12.60;88.70;;;;;;5096652;28;19947;-87
2022/10/19 03:57:11;;;;;;;;;;;12.60;88.80;;;;;;5096648;28;20319;-88
2022/10/19 03:59:36;;;;;;;;;;;12.60;88.80;;;;;;5096352;28;20260;-87
2022/10/19 04:02:02;;;;;;;;;;;12.60;88.90;;;;;;5096753;28;19970;-87
2022/10/19 04:04:28;;;;;;;;;;;12.50;88.90;;;;;;5096495;28;20454;-88
2022/10/19 04:06:53;;;;;;;;;;;12.40;88.60;;;;;;5096455;28;19944;-87
2022/10/19 04:09:20;;;;;;;;;;;12.30;88.60;;;;;;5096432;28;19941;-88
2022/10/19 04:11:46;;;;;;;;;;;12.20;88.80;;;;;;5096366;28;19942;-88
2022/10/19 04:14:12;;;;;;;;;;;12.00;88.60;;;;;;5096318;28;20353;-88
2022/10/19 04:16:37;;;;;;;;;;;12.00;89.00;;;;;;5095752;28;19939;-88
2022/10/19 04:19:03;;;;;;;;;;;12.00;89.90;;;;;;5096032;28;19937;-88
2022/10/19 04:21:36;;;;;;;;;;;12.10;89.30;;;;;;5095834;28;19966;-88
2022/10/19 04:24:06;;;;;;;;;;;12.10;88.80;;;;;;5096057;28;19949;-88
2022/10/19 04:26:33;;;;;;;;;;;12.20;88.60;;;;;;5096120;28;19942;-88
2022/10/19 04:29:00;;;;;;;;;;;12.20;88.00;;;;;;5095740;28;19975;-88
2022/10/19 04:31:26;;;;;;;;;;;12.10;87.90;;;;;;5095967;28;20391;-87
2022/10/19 04:33:52;;;;;;;;;;;12.10;87.50;;;;;;5095986;28;19941;-87
2022/10/19 04:36:18;;;;;;;;;;;12.00;87.20;;;;;;5095925;28;20474;-88
2022/10/19 04:38:43;;;;;;;;;;;11.90;87.30;;;;;;5095880;28;19940;-87
2022/10/19 04:41:16;;;;;;;;;;;11.90;87.40;;;;;;5095818;28;19945;-87
2022/10/19 04:43:44;;;;;;;;;;;11.80;87.90;;;;;;5094717;28;19944;-87
2022/10/19 04:46:10;;;;;;;;;;;11.80;88.30;;;;;;5095755;28;19966;-87
2022/10/19 04:48:37;;;;;;;;;;;11.70;88.80;;;;;;5095701;28;19936;-87
2022/10/19 04:51:03;;;;;;;;;;;11.70;89.10;;;;;;5095446;28;19987;-88
2022/10/19 04:53:29;;;;;;;;;;;11.70;89.50;;;;;;5095593;28;19981;-87
2022/10/19 04:55:55;;;;;;;;;;;11.80;89.90;;;;;;5095254;28;19975;-88
2022/10/19 04:58:20;;;;;;;;;;;11.90;90.60;;;;;;5095344;28;19945;-88
2022/10/19 05:00:46;;;;;;;;;;;11.90;90.40;;;;;;5095390;28;20320;-88
2022/10/19 05:03:12;;;;;;;;;;;12.10;89.70;;;;;;5094365;28;19966;-88
2022/10/19 05:05:37;;;;;;;;;;;12.10;89.30;;;;;;5076720;28;20116;-87
2022/10/19 05:08:03;;;;;;;;;;;12.10;88.90;;;;;;5094919;28;19939;-87
2022/10/19 05:10:28;;;;;;;;;;;12.10;88.30;;;;;;5095072;28;19938;-87
2022/10/19 05:12:54;;;;;;;;;;;12.10;88.60;;;;;;5078877;28;19957;-88
2022/10/19 05:15:20;;;;;;;;;;;12.20;88.00;;;;;;5089118;28;19944;-88
2022/10/19 05:17:45;;;;;;;;;;;12.30;87.90;;;;;;5093763;28;20397;-88
2022/10/19 05:20:11;;;;;;;;;;;12.20;87.30;;;;;;5094646;28;20033;-88
2022/10/19 05:22:37;;;;;;;;;;;12.30;87.60;;;;;;5094920;28;20215;-88
2022/10/19 05:25:03;;;;;;;;;;;12.00;88.00;;;;;;5094393;28;19958;-88
2022/10/19 05:27:28;;;;;;;;;;;11.90;88.10;;;;;;5093321;28;19944;-88
2022/10/19 05:29:54;;;;;;;;;;;11.80;89.40;;;;;;5092891;28;19973;-87
2022/10/19 05:32:19;;;;;;;;;;;11.60;90.70;;;;;;5087483;28;19943;-88
2022/10/19 05:34:45;;;;;;;;;;;11.70;91.80;;;;;;5088650;28;20003;-87
2022/10/19 05:37:10;;;;;;;;;;;11.80;91.60;;;;;;5098345;28;20570;-88
2022/10/19 05:39:36;;;;;;;;;;;12.00;91.50;;;;;;5093891;28;19987;-88
2022/10/19 05:42:02;;;;;;;;;;;12.10;91.00;;;;;;5088152;28;20008;-88
2022/10/19 05:44:27;;;;;;;;;;;12.20;89.80;;;;;;5094097;28;19943;-88
2022/10/19 05:46:52;;;;;;;;;;;12.20;89.10;;;;;;5089431;28;19959;-88
2022/10/19 05:49:19;;;;;;;;;;;12.30;89.40;;;;;;5091489;28;19985;-87
2022/10/19 05:51:44;;;;;;;;;;;12.30;89.10;;;;;;5092811;28;19963;-87
2022/10/19 05:54:10;;;;;;;;;;;12.40;88.90;;;;;;5093796;28;19949;-88
2022/10/19 05:56:36;;;;;;;;;;;12.40;87.90;;;;;;5091361;28;19955;-88
2022/10/19 05:59:04;;;;;;;;;;;12.40;87.70;;;;;;5091035;28;20047;-88
2022/10/19 06:01:29;;;;;;;;;;;12.30;87.80;;;;;;5091028;28;19970;-88
2022/10/19 06:03:56;;;;;;;;;;;12.10;88.10;;;;;;5092018;28;19948;-87
2022/10/19 06:06:22;;;;;;;;;;;11.90;89.30;;;;;;5092844;28;19951;-88
2022/10/19 06:08:48;;;;;;;;;;;11.90;90.30;;;;;;5092949;28;19945;-88
2022/10/19 06:11:15;;;;;;;;;;;11.90;90.80;;;;;;5092398;28;19945;-88
2022/10/19 06:13:41;;;;;;;;;;;11.80;91.50;;;;;;5090278;28;20034;-88
2022/10/19 06:16:08;;;;;;;;;;;11.70;91.80;;;;;;5090153;28;19967;-88
2022/10/19 06:18:33;;;;;;;;;;;11.80;91.40;;;;;;5093368;28;19947;-88
2022/10/19 06:21:03;;;;;;;;;;;11.80;91.60;;;;;;5091715;28;19946;-88
2022/10/19 06:23:29;;;;;;;;;;;11.70;92.50;;;;;;5092950;28;20007;-87
2022/10/19 06:25:54;;;;;;;;;;;11.80;91.90;;;;;;5092593;28;20373;-88
2022/10/19 06:28:20;;;;;;;;;;;11.80;92.00;;;;;;5091662;22;19976;-88
2022/10/19 06:30:45;;;;;;;;;;;11.90;92.20;;;;;;5079548;28;19994;-87
2022/10/19 06:33:12;;;;;;;;;;;11.90;92.00;;;;;;5037792;28;20423;-89
2022/10/19 06:35:41;;;;;;;;;;;11.90;91.70;;;;;;5071511;28;19949;-88
2022/10/19 06:38:06;;;;;;;;;;;12.00;91.80;;;;;;5071672;28;19948;-88
2022/10/19 06:40:33;;;;;;;;;;;12.30;91.60;;;;;;5071755;28;19945;-88
2022/10/19 06:42:58;;;;;;;;;;;12.60;90.10;;;;;;5088085;28;19958;-87
2022/10/19 06:45:24;;;;;;;;;;;12.60;90.30;;;;;;5083051;28;20302;-88
2022/10/19 06:47:49;;;;;;;;;;;12.90;89.60;;;;;;5057331;28;20006;-88
2022/10/19 06:50:15;;;;;;;;;;;12.90;90.00;;;;;;5068653;28;19998;-87
2022/10/19 06:52:41;;;;;;;;;;;12.90;89.90;;;;;;5097285;28;20381;-88
2022/10/19 06:55:07;;;;;;;;;;;12.90;90.20;;;;;;5090883;28;19947;-88
2022/10/19 06:57:32;;;;;;;;;;;12.80;91.00;;;;;;5092663;28;20318;-88
2022/10/19 06:59:58;;;;;;;;;;;12.90;91.30;;;;;;5091310;28;19946;-88
2022/10/19 07:02:23;;;;;;;;;;;12.90;91.60;;;;;;5091677;28;20402;-88
2022/10/19 07:04:49;;;;;;;;;;;13.00;92.10;;;;;;5092628;28;20465;-88
2022/10/19 07:07:14;;;;;;;;;;;13.10;92.30;;;;;;5087093;28;19945;-87
2022/10/19 07:09:40;;;;;;;;;;;13.30;92.70;;;;;;5088236;28;19951;-87
2022/10/19 07:12:05;;;;;;;;;;;13.40;92.90;;;;;;5088106;28;19971;-88
2022/10/19 07:14:37;;;;;;;;;;;13.50;93.10;;;;;;5091957;28;19994;-87
2022/10/19 07:17:03;;;;;;;;;;;13.60;93.20;;;;;;5091096;28;19958;-88
2022/10/19 07:19:29;;;;;;;;;;;13.70;92.80;;;;;;5093116;28;19939;-88
2022/10/19 07:21:54;;;;;;;;;;;13.80;92.60;;;;;;5089298;28;19967;-88
2022/10/19 07:24:20;;;;;;;;;;;13.90;92.50;;;;;;5089359;28;19950;-88
2022/10/19 07:26:45;;;;;;;;;;;14.00;92.20;;;;;;5091619;28;20319;-88
2022/10/19 07:29:11;;;;;;;;;;;14.10;91.70;;;;;;5087881;28;19974;-87
2022/10/19 07:31:36;;;;;;;;;;;14.30;91.50;;;;;;5094650;28;19950;-88
2022/10/19 07:34:03;;;;;;;;;;;14.50;90.80;;;;;;5069379;28;20001;-88
2022/10/19 07:36:31;;;;;;;;;;;14.70;90.80;;;;;;5094272;28;20038;-88
2022/10/19 07:38:56;;;;;;;;;;;14.80;90.00;;;;;;5087309;28;19939;-88
2022/10/19 07:41:24;;;;;;;;;;;15.00;89.70;;;;;;5082853;28;19939;-88
2022/10/19 07:43:50;;;;;;;;;;;15.10;90.10;;;;;;5082594;28;19947;-87
2022/10/19 07:46:17;;;;;;;;;;;15.20;89.50;;;;;;5091040;28;19946;-88
2022/10/19 07:48:43;;;;;;;;;;;15.30;89.00;;;;;;5092287;28;19946;-87
2022/10/19 07:51:09;;;;;;;;;;;15.40;88.90;;;;;;5091872;28;19961;-88
2022/10/19 07:53:35;;;;;;;;;;;15.60;89.00;;;;;;5092146;28;19952;-88
2022/10/19 07:56:08;;;;;;;;;;;15.80;88.80;;;;;;5092152;28;19943;-87
2022/10/19 07:58:33;;;;;;;;;;;15.90;88.50;;;;;;5091971;28;20053;-88
2022/10/19 08:01:06;;;;;;;;;;;16.10;87.70;;;;;;5092316;28;19949;-88
2022/10/19 08:03:32;;;;;;;;;;;16.20;87.10;;;;;;5087422;28;19986;-88
2022/10/19 08:06:01;;;;;;;;;;;16.30;86.10;;;;;;5089916;28;20321;-88
2022/10/19 08:08:27;;;;;;;;;;;16.40;85.40;;;;;;5088399;28;19985;-87
2022/10/19 08:10:53;;;;;;;;;;;16.50;85.40;;;;;;5085388;28;20402;-88
2022/10/19 08:13:18;;;;;;;;;;;16.70;85.60;;;;;;5088638;28;19948;-87
2022/10/19 08:15:44;;;;;;;;;;;16.70;85.60;;;;;;5088405;28;19950;-87
2022/10/19 08:18:10;;;;;;;;;;;16.80;85.80;;;;;;5095102;28;19940;-87
2022/10/19 08:20:36;;;;;;;;;;;16.90;85.50;;;;;;5095625;28;20335;-87
2022/10/19 08:23:02;;;;;;;;;;;17.00;85.60;;;;;;5089527;28;19998;-88
2022/10/19 08:25:28;;;;;;;;;;;17.20;83.50;;;;;;5086179;28;20531;-87
2022/10/19 08:27:53;;;;;;;;;;;17.30;82.20;;;;;;5091073;28;19950;-87
2022/10/19 08:30:19;;;;;;;;;;;17.40;81.40;;;;;;5090923;28;20011;-88
2022/10/19 08:32:44;;;;;;;;;;;17.60;81.20;;;;;;5075365;28;19958;-87
2022/10/19 08:35:10;;;;;;;;;;;17.60;80.50;;;;;;5092755;28;19955;-88
2022/10/19 08:37:35;;;;;;;;;;;17.70;79.10;;;;;;5088715;28;19949;-88
2022/10/19 08:40:01;;;;;;;;;;;17.80;79.10;;;;;;5092879;28;19947;-88
2022/10/19 08:42:47;;;;;;;;;;;17.80;79.70;;;;;;5089787;28;20028;-88
2022/10/19 08:45:32;;;;;;;;;;;18.00;78.50;;;;;;5078671;28;19945;-88
2022/10/19 08:48:21;;;;;;;;;;;18.20;77.70;;;;;;5088350;28;19954;-88
2022/10/19 08:50:47;;;;;;;;;;;18.30;76.70;;;;;;5078112;28;20022;-88
2022/10/19 08:53:15;;;;;;;;;;;18.40;76.10;;;;;;5092945;28;19949;-88
2022/10/19 08:55:43;;;;;;;;;;;18.60;75.10;;;;;;5085369;28;19959;-88
2022/10/19 08:58:12;;;;;;;;;;;18.60;75.40;;;;;;5094750;28;20430;-88
2022/10/19 09:00:42;;;;;;;;;;;18.70;75.20;;;;;;5089127;28;19944;-88
2022/10/19 09:03:26;;;;;;;;;;;18.70;74.70;;;;;;5091552;28;20073;-87
2022/10/19 09:06:04;;;;;;;;;;;18.80;74.80;;;;;;5090818;28;19950;-88
2022/10/19 09:08:29;;;;;;;;;;;18.90;75.10;;;;;;5091438;28;19943;-88
2022/10/19 09:10:56;;;;;;;;;;;19.10;73.40;;;;;;5091348;28;19950;-88
2022/10/19 09:13:31;;;;;;;;;;;19.20;73.40;;;;;;5111945;28;19945;-88
2022/10/19 09:15:57;;;;;;;;;;;19.30;73.20;;;;;;5095769;28;19955;-87
2022/10/19 09:18:22;;;;;;;;;;;19.30;73.30;;;;;;5091024;28;19944;-87
2022/10/19 09:20:49;;;;;;;;;;;19.40;71.30;;;;;;5099586;28;20014;-88
2022/10/19 09:23:19;;;;;;;;;;;19.60;71.70;;;;;;5094263;28;19965;-87
2022/10/19 09:25:46;;;;;;;;;;;19.70;70.70;;;;;;5088694;28;19960;-88
2022/10/19 09:28:30;;;;;;;;;;;19.70;71.40;;;;;;5093851;28;19965;-88
2022/10/19 09:30:57;;;;;;;;;;;19.80;71.00;;;;;;5089842;28;20396;-88
2022/10/19 09:33:25;;;;;;;;;;;19.90;70.70;;;;;;5090793;28;19997;-88
2022/10/19 09:35:52;;;;;;;;;;;20.00;70.10;;;;;;5089482;28;19949;-88
2022/10/19 09:38:19;;;;;;;;;;;20.20;69.40;;;;;;5094754;28;19979;-88
2022/10/19 09:40:45;;;;;;;;;;;20.30;69.40;;;;;;5070325;28;19946;-88
2022/10/19 09:43:20;;;;;;;;;;;20.30;69.70;;;;;;5092776;28;19973;-88
2022/10/19 09:45:54;;;;;;;;;;;20.40;69.30;;;;;;5089318;28;19944;-88
2022/10/19 09:48:25;;;;;;;;;;;20.40;69.00;;;;;;5091789;28;19989;-89
2022/10/19 09:50:54;;;;;;;;;;;20.60;69.70;;;;;;5094083;28;19940;-88
2022/10/19 09:53:20;;;;;;;;;;;20.80;68.50;;;;;;5093744;28;19947;-87
2022/10/19 09:55:52;;;;;;;;;;;20.80;68.20;;;;;;5092595;28;19954;-88
2022/10/19 09:58:18;;;;;;;;;;;20.90;68.60;;;;;;5067546;28;20043;-88
2022/10/19 10:00:46;;;;;;;;;;;21.00;68.50;;;;;;5072896;28;20089;-88
2022/10/19 10:03:30;;;;;;;;;;;21.10;67.70;;;;;;5091535;28;20452;-88
2022/10/19 10:06:04;;;;;;;;;;;21.20;67.70;;;;;;5092960;28;19952;-88
2022/10/19 10:08:32;;;;;;;;;;;21.30;66.80;;;;;;5094161;28;19991;-88
2022/10/19 10:10:58;;;;;;;;;;;21.30;66.50;;;;;;5093617;28;20305;-88
2022/10/19 10:13:24;;;;;;;;;;;21.50;66.00;;;;;;5093919;28;19942;-88
2022/10/19 10:15:54;;;;;;;;;;;21.50;65.60;;;;;;5093041;28;19957;-88
2022/10/19 10:18:22;;;;;;;;;;;21.60;66.70;;;;;;5093731;28;19935;-88
2022/10/19 10:21:01;;;;;;;;;;;21.80;65.70;;;;;;5094003;28;20034;-88
2022/10/19 10:23:28;;;;;;;;;;;21.80;64.20;;;;;;5093431;28;19964;-88
2022/10/19 10:25:56;;;;;;;;;;;22.00;64.50;;;;;;5093707;28;19973;-88
2022/10/19 10:28:22;;;;;;;;;;;22.00;63.80;;;;;;5093539;28;20334;-88
2022/10/19 10:30:52;;;;;;;;;;;22.10;63.10;;;;;;5093834;28;19937;-88
2022/10/19 10:33:25;;;;;;;;;;;22.20;62.50;;;;;;5093470;28;19948;-89
2022/10/19 10:35:54;;;;;;;;;;;22.30;61.80;;;;;;5093736;28;19942;-88
2022/10/19 10:38:25;;;;;;;;;;;22.40;60.80;;;;;;5093677;28;20026;-88
2022/10/19 10:40:52;;;;;;;;;;;22.60;61.00;;;;;;5093615;28;20450;-89
2022/10/19 10:43:19;;;;;;;;;;;22.70;61.40;;;;;;5093543;28;20420;-89
2022/10/19 10:45:47;;;;;;;;;;;22.80;60.80;;;;;;5093570;28;19941;-89
2022/10/19 10:48:19;;;;;;;;;;;22.90;60.40;;;;;;5093543;28;19944;-89
2022/10/19 10:50:45;;;;;;;;;;;23.10;60.60;;;;;;5075200;28;20359;-88
2022/10/19 10:53:29;;;;;;;;;;;23.30;59.20;;;;;;5093217;28;19942;-88
2022/10/19 10:55:55;;;;;;;;;;;23.40;58.80;;;;;;5093420;28;20442;-89
2022/10/19 10:58:30;;;;;;;;;;;23.60;57.80;;;;;;5093383;28;20424;-88
2022/10/19 11:00:58;;;;;;;;;;;23.70;58.30;;;;;;5093339;28;19939;-89
2022/10/19 11:03:32;;;;;;;;;;;23.80;57.90;;;;;;5093436;28;20014;-89
2022/10/19 11:05:59;;;;;;;;;;;24.00;56.50;;;;;;5093521;28;19944;-88
2022/10/19 11:08:27;;;;;;;;;;;24.20;54.70;;;;;;5093524;28;20026;-88
2022/10/19 11:10:56;;;;;;;;;;;24.30;54.40;;;;;;5091991;28;19956;-89
2022/10/19 11:13:24;;;;;;;;;;;24.40;53.60;;;;;;5093004;28;20038;-89
2022/10/19 11:15:59;;;;;;;;;;;24.60;53.90;;;;;;5092847;28;20316;-88
2022/10/19 11:18:42;;;;;;;;;;;24.70;53.10;;;;;;5092984;28;19948;-89
2022/10/19 11:21:14;;;;;;;;;;;25.00;53.10;;;;;;5091123;28;19992;-89
2022/10/19 11:23:48;;;;;;;;;;;25.30;52.40;;;;;;5092418;28;20044;-89
2022/10/19 11:26:37;;;;;;;;;;;25.30;52.00;;;;;;5092836;28;20044;-88
2022/10/19 11:29:09;;;;;;;;;;;25.20;52.30;;;;;;5091527;28;20074;-89
2022/10/19 11:31:46;;;;;;;;;;;25.00;52.90;;;;;;5082440;28;19943;-88
2022/10/19 11:34:27;;;;;;;;;;;24.90;52.50;;;;;;5080844;28;20430;-88
2022/10/19 11:36:58;;;;;;;;;;;25.00;53.10;;;;;;5092656;28;19940;-88
2022/10/19 11:39:27;;;;;;;;;;;25.20;52.70;;;;;;5092460;28;20397;-88
2022/10/19 11:42:07;;;;;;;;;;;25.30;52.90;;;;;;5092420;28;19988;-88
2022/10/19 11:44:53;;;;;;;;;;;25.70;52.50;;;;;;5090226;28;19948;-89
2022/10/19 11:47:28;;;;;;;;;;;25.80;52.40;;;;;;5070868;28;20306;-88
2022/10/19 11:49:59;;;;;;;;;;;25.90;51.20;;;;;;5072175;28;19956;-88
2022/10/19 11:52:45;;;;;;;;;;;26.10;49.30;;;;;;5077389;28;20362;-89
2022/10/19 11:55:11;;;;;;;;;;;26.50;48.60;;;;;;5076099;28;20413;-88
2022/10/19 11:57:48;;;;;;;;;;;27.30;46.20;;;;;;5077754;28;20392;-88
2022/10/19 12:00:18;;;;;;;;;;;28.20;45.90;;;;;;5095793;28;20357;-88
2022/10/19 12:02:49;;;;;;;;;;;28.90;42.70;;;;;;5077120;28;19962;-89
2022/10/19 12:05:21;;;;;;;;;;;29.40;43.00;;;;;;5096267;28;19939;-88
2022/10/19 12:08:06;;;;;;;;;;;29.80;41.50;;;;;;5095418;28;20043;-89
2022/10/19 12:10:44;;;;;;;;;;;30.10;41.50;;;;;;5095188;28;19960;-89
2022/10/19 12:13:11;;;;;;;;;;;30.50;39.70;;;;;;5093434;28;20043;-88
2022/10/19 12:15:40;;;;;;;;;;;30.70;38.20;;;;;;5089250;28;19938;-89
2022/10/19 12:18:14;;;;;;;;;;;31.00;38.10;;;;;;5109269;28;20508;-88
2022/10/19 12:20:45;;;;;;;;;;;31.20;38.20;;;;;;5095100;28;20038;-88
2022/10/19 12:23:23;;;;;;;;;;;32.20;36.60;;;;;;5095733;28;19956;-89
2022/10/19 12:25:49;;;;;;;;;;;32.90;34.90;;;;;;5084076;28;19941;-89
2022/10/19 12:28:21;;;;;;;;;;;32.30;35.00;;;;;;5099376;28;19969;-89
2022/10/19 12:30:47;;;;;;;;;;;32.60;35.00;;;;;;5096548;28;20482;-89
2022/10/19 12:33:22;;;;;;;;;;;32.60;35.50;;;;;;5095009;28;19992;-89
2022/10/19 12:35:57;;;;;;;;;;;32.40;35.10;;;;;;5095062;28;19956;-89
2022/10/19 12:38:47;;;;;;;;;;;32.90;33.40;;;;;;5083817;28;19945;-88
2022/10/19 12:41:26;;;;;;;;;;;32.10;34.30;;;;;;5095517;28;19980;-88
2022/10/19 12:43:57;;;;;;;;;;;32.20;35.00;;;;;;5094854;28;19943;-89
2022/10/19 12:46:29;;;;;;;;;;;32.10;34.40;;;;;;5084266;28;19938;-89
2022/10/19 12:49:27;;;;;;;;;;;32.40;34.90;;;;;;5089314;28;19949;-88
2022/10/19 12:51:53;;;;;;;;;;;32.60;33.60;;;;;;5038544;28;19967;-88
2022/10/19 12:54:22;;;;;;;;;;;32.90;34.40;;;;;;5081068;28;19946;-89
2022/10/19 12:56:49;;;;;;;;;;;32.60;34.20;;;;;;5095266;28;19990;-88
2022/10/19 12:59:32;;;;;;;;;;;32.20;35.20;;;;;;5093492;28;19956;-89
2022/10/19 13:01:58;;;;;;;;;;;32.50;34.70;;;;;;5085093;28;20056;-88
2022/10/19 13:04:25;;;;;;;;;;;33.20;34.20;;;;;;5086147;28;19952;-88
2022/10/19 13:06:57;;;;;;;;;;;33.20;33.90;;;;;;5076919;28;19970;-88
2022/10/19 13:09:40;;;;;;;;;;;33.10;34.40;;;;;;5092114;28;19953;-88
2022/10/19 13:12:12;;;;;;;;;;;33.20;34.10;;;;;;5089155;28;19969;-88
2022/10/19 13:14:40;;;;;;;;;;;33.10;33.50;;;;;;5090048;28;19991;-88
2022/10/19 13:17:06;;;;;;;;;;;33.20;33.70;;;;;;5091933;28;19946;-88
2022/10/19 13:19:32;;;;;;;;;;;33.00;33.30;;;;;;5093752;28;19949;-88
2022/10/19 13:22:00;;;;;;;;;;;32.70;33.60;;;;;;5091908;28;20054;-88
2022/10/19 13:24:26;;;;;;;;;;;32.60;34.10;;;;;;5085291;28;19948;-88
2022/10/19 13:27:03;;;;;;;;;;;32.40;35.40;;;;;;5093038;28;20017;-88
2022/10/19 13:29:38;;;;;;;;;;;32.20;35.40;;;;;;5088809;28;20063;-88
2022/10/19 13:32:22;;;;;;;;;;;33.20;34.60;;;;;;5090918;28;19990;-88
2022/10/19 13:34:47;;;;;;;;;;;33.10;33.70;;;;;;5089018;28;19945;-88
2022/10/19 13:37:20;;;;;;;;;;;33.60;34.10;;;;;;5084672;28;19987;-88
2022/10/19 13:39:46;;;;;;;;;;;33.40;32.80;;;;;;5088718;28;20356;-88
2022/10/19 13:42:25;;;;;;;;;;;33.20;33.70;;;;;;5090087;28;20416;-88
2022/10/19 13:44:52;;;;;;;;;;;33.20;33.30;;;;;;5091593;28;19948;-88
2022/10/19 13:47:28;;;;;;;;;;;33.50;32.50;;;;;;5092142;28;20417;-89
2022/10/19 13:49:53;;;;;;;;;;;33.50;32.30;;;;;;5092882;28;20451;-88
2022/10/19 13:52:25;;;;;;;;;;;32.80;34.60;;;;;;5075757;28;20005;-88
2022/10/19 13:54:50;;;;;;;;;;;32.40;34.70;;;;;;5092496;28;19950;-89
2022/10/19 13:57:35;;;;;;;;;;;32.10;35.30;;;;;;5102014;28;19953;-88
2022/10/19 14:00:19;;;;;;;;;;;31.60;35.50;;;;;;5107632;28;19950;-88
2022/10/19 14:02:57;;;;;;;;;;;31.00;35.90;;;;;;5090538;28;20003;-89
2022/10/19 14:05:35;;;;;;;;;;;31.10;36.60;;;;;;5092310;28;19942;-89
2022/10/19 14:08:03;;;;;;;;;;;31.20;35.30;;;;;;5092410;28;19993;-89
2022/10/19 14:10:29;;;;;;;;;;;31.60;35.20;;;;;;5091225;28;20013;-88
2022/10/19 14:12:55;;;;;;;;;;;31.70;34.90;;;;;;5092550;28;19999;-88
2022/10/19 14:15:28;;;;;;;;;;;31.70;34.80;;;;;;5093936;28;19986;-88
2022/10/19 14:17:54;;;;;;;;;;;31.60;35.80;;;;;;5105933;28;20331;-89
2022/10/19 14:20:28;;;;;;;;;;;31.70;34.20;;;;;;5091029;28;19943;-88
2022/10/19 14:22:54;;;;;;;;;;;32.20;33.70;;;;;;5092596;28;20020;-89
2022/10/19 14:25:26;;;;;;;;;;;32.20;33.40;;;;;;5071949;28;19999;-88
2022/10/19 14:28:12;;;;;;;;;;;31.90;33.00;;;;;;5077765;22;20394;-88